Airfield :
LOGIN :

Register | Disclaimer

   EN    FR    IT 

 










Legend :    VFR   Marginal VFR   IFR   Intensive IFR   Very Intensive IFR
Visi :
Ceiling :
>= 8 km
>= 3000ft
5 to 8 km
1000 to 3000 ft
1500m to 5 km
500 to 1000 ft
800 to 1500m
200 to 500 ft
< 800m
< 200 ft
Symbols :   Thunderstorms  Fog  Heavy snow  Heavy precipitations  Wind > 20 kt
SIGMETs :     Misc.  Thunderstorms  Icing  Turbulence  Mountain Waves  Volcanic Ashes






- Airport Elevation : 226 ft
- IATA code : BEX


EGUB - RAF Benson

CURRENT METAR :
  • 192220Z 14007KT 9999 FEW025 BKN050 BKN220 06/04 Q1014 NOSIG RMK BLU BLU

EXPIRED METARs :
  • 192150Z 12009KT 9999 BKN048 06/04 Q1014 NOSIG RMK BLU BLU
  • 192120Z 13011KT 9999 BKN048 07/04 Q1014 NOSIG RMK BLU BLU
  • 192050Z 14009KT 9999 BKN048 BKN200 07/04 Q1014 NOSIG RMK BLU BLU
  • 192020Z 14010KT 9999 BKN048 BKN200 07/04 Q1015 NOSIG RMK BLU BLU
  • 191950Z 13010KT CAVOK 06/04 Q1015 NOSIG RMK BLU BLU

TAF TAF EGUB
Valid from the 19 at 21:00 until the 20 at 00:00 UTC


191953Z 1921/1924 13006KT 9999 FEW045
PROB30 1921/1924 5000 BR
ATIS : +44 1491-837766 (x7524)



MET'MAP, your aeronautical weather chart ! - Copyright ORBIFLY December 2007 - Disclaimer

ORBIFLY MET'MAP TEAM :

Programming & Development : Alexandra Zaïnal
Concept & Development : Baudouin d'Aumeries
Co-Development & Prog : Marc-Olivier Méhu
Technical & hardware support : Manuel Goepfert

Contact : metmap@orbifly.com




SOURCES & CREDITS :

   NOAA